Time;durP1;ratioP1;P1;durP2;ratioP2;P2;SDS_P1;SDS_P2;PMS_P1;PMS_P2;Temp;Humidity;BMP_temperature;BMP_pressure;BME280_temperature;BME280_humidity;BME280_pressure;Samples;Min_cycle;Max_cycle;Signal;HPM_P1;HPM_P2
2023/08/27 00:01:14;;;;;;;7.95;6.65;;;15.70;99.90;;;;;;4894529;29;20177;-72
2023/08/27 00:03:39;;;;;;;8.77;6.80;;;15.70;99.90;;;;;;4869803;29;20040;-71
2023/08/27 00:06:06;;;;;;;8.88;6.55;;;15.70;99.90;;;;;;4898378;29;20087;-71
2023/08/27 00:08:32;;;;;;;7.28;6.30;;;15.70;99.90;;;;;;4897817;29;20045;-71
2023/08/27 00:10:59;;;;;;;8.90;7.30;;;15.70;99.90;;;;;;4898257;29;20055;-72
2023/08/27 00:13:25;;;;;;;7.25;6.53;;;15.60;99.90;;;;;;4895791;29;20111;-72
2023/08/27 00:15:50;;;;;;;7.90;6.55;;;15.60;99.90;;;;;;4890784;29;20052;-71
2023/08/27 00:18:16;;;;;;;9.57;6.45;;;15.60;99.90;;;;;;4896882;29;20059;-70
2023/08/27 00:20:45;;;;;;;8.85;6.75;;;15.60;99.90;;;;;;4896451;29;20056;-70
2023/08/27 00:23:13;;;;;;;7.05;6.35;;;15.60;99.90;;;;;;4897443;29;20048;-71
2023/08/27 00:25:39;;;;;;;8.13;7.35;;;15.60;99.90;;;;;;4882404;29;20125;-71
2023/08/27 00:28:05;;;;;;;8.15;6.50;;;15.60;99.90;;;;;;4887368;29;20086;-72
2023/08/27 00:30:31;;;;;;;7.65;6.82;;;15.50;99.90;;;;;;4896455;29;20057;-71
2023/08/27 00:32:57;;;;;;;9.18;6.53;;;15.50;99.90;;;;;;4899015;29;20048;-71
2023/08/27 00:35:22;;;;;;;8.15;7.00;;;15.50;99.90;;;;;;4888699;29;20053;-71
2023/08/27 00:37:48;;;;;;;7.70;6.85;;;15.50;99.90;;;;;;4898024;29;20700;-71
2023/08/27 00:40:14;;;;;;;8.43;6.70;;;15.50;99.90;;;;;;4888287;29;20053;-71
2023/08/27 00:42:40;;;;;;;7.72;6.93;;;15.40;99.90;;;;;;4896961;29;20044;-70
2023/08/27 00:45:06;;;;;;;7.72;7.03;;;15.40;99.90;;;;;;4870242;29;20052;-71
2023/08/27 00:47:35;;;;;;;8.13;6.72;;;15.40;99.90;;;;;;4890846;29;20044;-72
2023/08/27 00:50:02;;;;;;;9.13;6.90;;;15.40;99.90;;;;;;4896039;29;20063;-71
2023/08/27 00:52:28;;;;;;;8.90;7.15;;;15.30;99.90;;;;;;4895488;29;20101;-71
2023/08/27 00:54:58;;;;;;;7.65;6.85;;;15.30;99.90;;;;;;4896305;29;20048;-71
2023/08/27 00:57:25;;;;;;;8.25;7.45;;;15.30;99.90;;;;;;4900911;29;20491;-70
2023/08/27 00:59:53;;;;;;;7.40;6.70;;;15.30;99.90;;;;;;4894063;29;20055;-70
2023/08/27 01:02:19;;;;;;;8.73;7.40;;;15.30;99.90;;;;;;4897925;29;20052;-70
2023/08/27 01:04:45;;;;;;;9.63;7.38;;;15.20;99.90;;;;;;4892119;29;20155;-70
2023/08/27 01:07:35;;;;;;;9.27;7.90;;;15.10;99.90;;;;;;4880559;29;20407;-70
2023/08/27 01:10:21;;;;;;;8.63;7.72;;;15.10;99.90;;;;;;4896318;29;20044;-70
2023/08/27 01:13:09;;;;;;;10.13;7.45;;;15.10;99.90;;;;;;4884651;29;20061;-70
2023/08/27 01:15:36;;;;;;;8.35;7.45;;;15.00;99.90;;;;;;4883240;29;20076;-73
2023/08/27 01:18:03;;;;;;;8.23;7.43;;;15.00;99.90;;;;;;4856631;29;1170270;-71
2023/08/27 01:20:32;;;;;;;10.07;6.93;;;14.90;99.90;;;;;;4897844;29;20053;-71
2023/08/27 01:22:57;;;;;;;8.05;6.63;;;14.90;99.90;;;;;;4896478;29;20054;-72
2023/08/27 01:25:41;;;;;;;8.68;7.03;;;14.90;99.90;;;;;;4890651;29;20124;-71
2023/08/27 01:28:13;;;;;;;7.90;7.13;;;14.90;99.90;;;;;;4898041;29;20049;-71
2023/08/27 01:31:03;;;;;;;7.72;6.93;;;14.90;99.90;;;;;;4877311;29;20059;-71
2023/08/27 01:33:29;;;;;;;7.57;6.70;;;14.90;99.90;;;;;;4870369;29;20044;-70
2023/08/27 01:35:59;;;;;;;10.02;7.07;;;14.90;99.90;;;;;;4894958;29;20044;-71
2023/08/27 01:38:25;;;;;;;7.13;6.43;;;14.80;99.90;;;;;;4885533;29;20492;-71
2023/08/27 01:40:51;;;;;;;7.40;6.50;;;14.80;99.90;;;;;;4894312;29;20056;-70
2023/08/27 01:43:16;;;;;;;9.10;6.40;;;14.90;99.90;;;;;;4870058;29;20087;-70
2023/08/27 01:45:42;;;;;;;8.90;7.63;;;14.80;99.90;;;;;;4888072;29;20041;-71
2023/08/27 01:48:08;;;;;;;7.93;7.13;;;14.80;99.90;;;;;;4854647;29;20547;-72
2023/08/27 01:50:33;;;;;;;8.10;7.30;;;14.80;99.90;;;;;;4887056;29;20196;-71
2023/08/27 01:52:59;;;;;;;7.47;6.72;;;14.80;99.90;;;;;;4869893;29;20041;-71
2023/08/27 01:55:25;;;;;;;8.10;7.07;;;14.80;99.90;;;;;;4894414;29;20404;-70
2023/08/27 01:57:50;;;;;;;7.78;7.00;;;14.80;99.90;;;;;;4879855;29;20151;-71
2023/08/27 02:00:18;;;;;;;7.82;7.05;;;14.80;99.90;;;;;;4891722;29;20057;-71
2023/08/27 02:02:45;;;;;;;7.30;6.30;;;14.80;99.90;;;;;;4870125;29;20052;-71
2023/08/27 02:05:10;;;;;;;8.10;7.05;;;14.80;99.90;;;;;;4879786;29;20119;-72
2023/08/27 02:07:38;;;;;;;7.40;6.68;;;14.70;99.90;;;;;;4889473;29;20135;-71
2023/08/27 02:10:07;;;;;;;9.18;7.30;;;14.70;99.90;;;;;;4879719;29;20059;-71
2023/08/27 02:12:34;;;;;;;8.45;6.30;;;14.70;99.90;;;;;;4864982;29;20052;-71
2023/08/27 02:14:59;;;;;;;7.63;6.68;;;14.70;99.90;;;;;;4888025;29;20052;-71
2023/08/27 02:17:25;;;;;;;7.72;7.00;;;14.70;99.90;;;;;;4897111;29;20112;-71
2023/08/27 02:19:51;;;;;;;8.25;6.63;;;14.70;99.90;;;;;;4893108;29;20131;-71
2023/08/27 02:22:17;;;;;;;7.32;6.63;;;14.60;99.90;;;;;;4895712;29;20128;-71
2023/08/27 02:24:43;;;;;;;7.82;6.93;;;14.60;99.90;;;;;;4856667;29;20435;-71
2023/08/27 02:27:08;;;;;;;9.18;7.07;;;14.60;99.90;;;;;;4875638;29;20037;-71
2023/08/27 02:29:35;;;;;;;7.40;6.50;;;14.60;99.90;;;;;;4896861;29;20053;-71
2023/08/27 02:32:02;;;;;;;7.60;6.80;;;14.60;99.90;;;;;;4872011;29;20116;-72
2023/08/27 02:34:28;;;;;;;8.30;6.57;;;14.60;99.90;;;;;;4878662;29;20052;-72
2023/08/27 02:36:54;;;;;;;9.55;6.70;;;14.60;99.90;;;;;;4876917;29;20080;-72
2023/08/27 02:39:20;;;;;;;7.63;6.93;;;14.50;99.90;;;;;;4896040;29;20083;-71
2023/08/27 02:41:45;;;;;;;7.03;6.25;;;14.50;99.90;;;;;;4896401;29;20115;-70
2023/08/27 02:44:11;;;;;;;8.13;7.32;;;14.50;99.90;;;;;;4891525;29;20077;-72
2023/08/27 02:46:37;;;;;;;9.70;7.20;;;14.40;99.90;;;;;;4883523;29;20460;-72
2023/08/27 02:49:02;;;;;;;8.25;7.15;;;14.40;99.90;;;;;;4845831;29;20129;-72
2023/08/27 02:51:28;;;;;;;8.82;7.13;;;14.40;99.90;;;;;;4861462;29;20496;-71
2023/08/27 02:53:54;;;;;;;9.57;7.82;;;14.40;99.90;;;;;;4876659;29;20045;-71
2023/08/27 02:56:22;;;;;;;12.82;7.90;;;14.40;99.90;;;;;;4855478;29;20069;-71
2023/08/27 02:58:49;;;;;;;8.45;7.47;;;14.30;99.90;;;;;;4876167;29;21226;-71
2023/08/27 03:01:20;;;;;;;8.02;7.28;;;14.30;99.90;;;;;;4877533;29;20151;-71
2023/08/27 03:03:47;;;;;;;9.73;7.70;;;14.30;99.90;;;;;;4863923;29;20389;-72
2023/08/27 03:06:13;;;;;;;10.18;7.45;;;14.30;99.90;;;;;;4853958;29;20166;-72
2023/08/27 03:08:39;;;;;;;8.25;7.43;;;14.20;99.90;;;;;;4877526;29;20060;-71
2023/08/27 03:11:05;;;;;;;8.55;7.65;;;14.30;99.90;;;;;;4882633;29;20049;-71
2023/08/27 03:13:31;;;;;;;8.10;7.10;;;14.20;99.90;;;;;;4859533;29;20041;-72
2023/08/27 03:15:56;;;;;;;8.35;7.55;;;14.20;99.90;;;;;;4866680;29;20052;-73
2023/08/27 03:18:22;;;;;;;9.00;7.57;;;14.20;99.90;;;;;;4878052;29;20063;-73
2023/08/27 03:20:48;;;;;;;8.60;6.72;;;14.20;99.90;;;;;;4861904;29;20056;-72
2023/08/27 03:23:14;;;;;;;8.52;7.47;;;14.20;99.90;;;;;;4862132;29;20112;-72
2023/08/27 03:25:40;;;;;;;8.52;7.38;;;14.20;99.90;;;;;;4861645;29;20080;-72
2023/08/27 03:28:05;;;;;;;9.02;7.63;;;14.20;99.90;;;;;;4861822;29;20133;-72
2023/08/27 03:30:31;;;;;;;8.85;7.60;;;14.20;99.90;;;;;;4861915;29;20048;-72
2023/08/27 03:32:57;;;;;;;8.88;7.95;;;14.20;99.90;;;;;;4876777;29;20080;-73
2023/08/27 03:35:22;;;;;;;10.63;7.68;;;14.20;99.90;;;;;;4885942;29;20040;-73
2023/08/27 03:37:48;;;;;;;9.65;7.35;;;14.20;99.90;;;;;;4879934;29;20112;-71
2023/08/27 03:40:14;;;;;;;9.10;7.90;;;14.20;99.90;;;;;;4883382;29;20550;-72
2023/08/27 03:42:39;;;;;;;8.57;7.50;;;14.20;99.90;;;;;;4878071;29;20049;-72
2023/08/27 03:45:06;;;;;;;9.43;8.38;;;14.20;99.90;;;;;;4882987;29;20045;-71
2023/08/27 03:47:32;;;;;;;8.82;7.90;;;14.20;99.90;;;;;;4898718;29;20507;-71
2023/08/27 03:49:57;;;;;;;9.60;7.90;;;14.30;99.90;;;;;;4898665;29;20052;-74
2023/08/27 03:52:23;;;;;;;9.43;7.75;;;14.30;99.90;;;;;;4875862;29;20048;-72
2023/08/27 03:54:49;;;;;;;10.73;7.93;;;14.30;99.90;;;;;;4881015;29;20056;-71
2023/08/27 03:57:15;;;;;;;8.90;7.35;;;14.40;99.90;;;;;;4867746;29;20498;-72
2023/08/27 03:59:40;;;;;;;8.23;7.25;;;14.40;99.90;;;;;;4878840;29;20056;-72
2023/08/27 04:02:08;;;;;;;8.57;7.13;;;14.40;99.90;;;;;;4881660;29;20061;-72
2023/08/27 04:04:34;;;;;;;9.27;8.15;;;14.40;99.90;;;;;;4860770;29;20075;-72
2023/08/27 04:07:00;;;;;;;9.10;7.70;;;14.40;99.90;;;;;;4898352;29;20045;-73
2023/08/27 04:09:26;;;;;;;10.82;7.40;;;14.50;99.90;;;;;;4892604;29;20048;-72
2023/08/27 04:11:52;;;;;;;8.93;7.80;;;14.50;99.90;;;;;;4888866;29;20073;-73
2023/08/27 04:14:17;;;;;;;8.63;7.30;;;14.60;99.90;;;;;;4885453;29;20049;-73
2023/08/27 04:16:43;;;;;;;7.93;7.13;;;14.60;99.90;;;;;;4866479;29;20048;-73
2023/08/27 04:19:09;;;;;;;7.97;7.10;;;14.60;99.90;;;;;;4863067;29;20183;-73
2023/08/27 04:21:34;;;;;;;8.85;7.88;;;14.50;99.90;;;;;;4867622;29;20083;-72
2023/08/27 04:24:00;;;;;;;9.43;7.70;;;14.60;99.90;;;;;;4882448;29;20542;-73
2023/08/27 04:26:26;;;;;;;9.18;7.43;;;14.60;99.90;;;;;;4897797;29;20059;-72
2023/08/27 04:28:54;;;;;;;9.13;7.93;;;14.60;99.90;;;;;;4860972;29;20104;-72
2023/08/27 04:31:21;;;;;;;8.70;7.18;;;14.60;99.90;;;;;;4867072;29;20055;-72
2023/08/27 04:33:46;;;;;;;9.57;7.63;;;14.60;99.90;;;;;;4897920;29;20406;-72
2023/08/27 04:36:12;;;;;;;8.15;7.35;;;14.50;99.90;;;;;;4897585;29;20124;-72
2023/08/27 04:38:38;;;;;;;10.02;7.85;;;14.50;99.90;;;;;;4897709;29;20402;-71
2023/08/27 04:41:04;;;;;;;8.85;7.82;;;14.50;99.90;;;;;;4876121;29;20400;-74
2023/08/27 04:43:30;;;;;;;8.77;7.78;;;14.50;99.90;;;;;;4856237;29;20075;-72
2023/08/27 04:45:55;;;;;;;8.68;7.72;;;14.50;99.90;;;;;;4881422;29;20049;-72
2023/08/27 04:48:21;;;;;;;8.48;7.28;;;14.50;99.90;;;;;;4881025;29;20475;-72
2023/08/27 04:50:47;;;;;;;9.45;7.18;;;14.50;99.90;;;;;;4897549;29;20093;-72
2023/08/27 04:53:14;;;;;;;8.88;7.47;;;14.40;99.90;;;;;;4894126;29;20044;-72
2023/08/27 04:55:40;;;;;;;8.48;7.53;;;14.50;99.90;;;;;;4882514;29;20159;-71
2023/08/27 04:58:07;;;;;;;8.45;7.32;;;14.40;99.90;;;;;;4881973;29;20056;-74
2023/08/27 05:00:33;;;;;;;10.93;7.38;;;14.40;99.90;;;;;;4898002;29;20049;-72
2023/08/27 05:02:59;;;;;;;11.55;6.82;;;14.50;99.90;;;;;;4896795;29;20068;-72
2023/08/27 05:05:25;;;;;;;9.30;7.40;;;14.40;99.90;;;;;;4891508;29;20041;-72
2023/08/27 05:07:51;;;;;;;8.05;6.65;;;14.50;99.90;;;;;;4864744;29;20048;-72
2023/08/27 05:10:16;;;;;;;7.15;6.43;;;14.50;99.90;;;;;;4862753;29;20064;-72
2023/08/27 05:12:42;;;;;;;9.55;7.13;;;14.50;99.90;;;;;;4847828;29;20053;-72
2023/08/27 05:15:08;;;;;;;7.95;6.65;;;14.50;99.90;;;;;;4866823;29;20049;-73
2023/08/27 05:17:34;;;;;;;8.35;6.80;;;14.50;99.90;;;;;;4862156;29;20064;-72
2023/08/27 05:20:00;;;;;;;8.18;7.28;;;14.50;99.90;;;;;;4878449;29;20396;-72
2023/08/27 05:22:25;;;;;;;8.50;6.60;;;14.50;99.90;;;;;;4882365;29;20410;-72
2023/08/27 05:24:51;;;;;;;9.25;6.68;;;14.50;99.90;;;;;;4888549;29;20049;-72
2023/08/27 05:27:17;;;;;;;8.93;6.53;;;14.60;99.90;;;;;;4862842;29;20105;-72
2023/08/27 05:29:43;;;;;;;7.97;6.65;;;14.60;99.90;;;;;;4862972;29;20057;-72
2023/08/27 05:32:08;;;;;;;7.13;6.35;;;14.60;99.90;;;;;;4862923;29;20112;-72
2023/08/27 05:34:35;;;;;;;8.27;6.47;;;14.60;99.90;;;;;;4878839;29;20083;-72
2023/08/27 05:37:02;;;;;;;7.38;5.82;;;14.60;99.90;;;;;;4847506;29;20048;-72
2023/08/27 05:39:28;;;;;;;7.40;6.30;;;14.70;99.90;;;;;;4863361;29;20077;-73
2023/08/27 05:41:53;;;;;;;7.43;5.88;;;14.70;99.90;;;;;;4867763;29;20052;-71
2023/08/27 05:44:19;;;;;;;7.10;6.13;;;14.80;99.90;;;;;;4859766;29;20053;-72
2023/08/27 05:46:45;;;;;;;8.15;6.20;;;15.00;99.90;;;;;;4895348;29;20411;-72
2023/08/27 05:49:11;;;;;;;7.10;5.05;;;15.50;99.90;;;;;;4856375;29;20495;-72
2023/08/27 05:51:37;;;;;;;6.28;5.20;;;16.30;99.90;;;;;;4863464;29;20056;-71
2023/08/27 05:54:03;;;;;;;7.68;4.88;;;17.20;99.90;;;;;;4848497;29;20139;-71
2023/08/27 05:56:29;;;;;;;6.70;4.50;;;18.00;99.90;;;;;;4877442;29;20189;-72
2023/08/27 05:58:55;;;;;;;5.55;4.78;;;18.70;99.90;;;;;;4864180;29;20459;-73
2023/08/27 06:01:20;;;;;;;6.78;4.60;;;19.10;99.90;;;;;;4871581;29;20045;-72
2023/08/27 06:03:47;;;;;;;6.03;4.55;;;19.10;99.90;;;;;;4878790;29;20049;-72
2023/08/27 06:06:12;;;;;;;6.15;4.60;;;18.60;99.90;;;;;;4862711;29;20480;-71
2023/08/27 06:08:38;;;;;;;6.85;4.60;;;18.00;99.90;;;;;;4877267;29;20059;-72
2023/08/27 06:11:04;;;;;;;6.20;4.93;;;17.50;99.90;;;;;;4862000;29;20056;-71
2023/08/27 06:13:31;;;;;;;5.65;4.85;;;17.20;99.90;;;;;;4882334;29;20051;-71
2023/08/27 06:15:57;;;;;;;7.82;5.03;;;16.90;99.90;;;;;;4877688;29;20079;-71
2023/08/27 06:18:23;;;;;;;6.20;5.13;;;16.60;99.90;;;;;;4876343;29;20056;-72
2023/08/27 06:20:49;;;;;;;5.47;4.53;;;16.40;99.90;;;;;;4864110;29;20084;-72
2023/08/27 06:23:15;;;;;;;9.40;5.43;;;16.20;99.90;;;;;;4861797;29;20063;-71
2023/08/27 06:25:41;;;;;;;7.07;5.30;;;16.10;99.90;;;;;;4861305;29;20567;-71
2023/08/27 06:28:07;;;;;;;6.75;5.45;;;16.10;99.90;;;;;;4876490;29;20057;-71
2023/08/27 06:30:33;;;;;;;8.15;5.70;;;16.10;99.90;;;;;;4877016;29;20049;-71
2023/08/27 06:33:00;;;;;;;8.32;5.43;;;16.00;99.90;;;;;;4885238;29;20062;-72
2023/08/27 06:35:26;;;;;;;7.50;4.85;;;16.00;99.90;;;;;;4861700;29;20056;-72
2023/08/27 06:37:52;;;;;;;7.90;5.43;;;16.00;99.90;;;;;;4877433;29;20049;-72
2023/08/27 06:40:18;;;;;;;7.10;4.82;;;16.00;99.90;;;;;;4861470;29;20045;-71
2023/08/27 06:42:43;;;;;;;6.70;5.43;;;16.00;99.90;;;;;;4875922;29;20495;-71
2023/08/27 06:45:10;;;;;;;6.47;5.22;;;15.90;99.90;;;;;;4880914;29;20064;-72
2023/08/27 06:47:36;;;;;;;7.97;5.43;;;15.80;99.90;;;;;;4880071;29;20049;-72
2023/08/27 06:50:04;;;;;;;6.78;5.10;;;15.70;99.90;;;;;;4880773;29;20049;-73
2023/08/27 06:52:31;;;;;;;8.05;5.65;;;15.70;99.90;;;;;;4888435;29;20056;-72
2023/08/27 06:54:58;;;;;;;8.80;5.20;;;15.70;99.90;;;;;;4894107;29;20398;-72
2023/08/27 06:57:24;;;;;;;8.05;5.85;;;15.60;99.90;;;;;;4891942;29;20463;-74
2023/08/27 06:59:50;;;;;;;9.70;6.10;;;15.60;99.90;;;;;;4895628;29;20057;-72
2023/08/27 07:02:16;;;;;;;7.43;5.57;;;15.60;99.90;;;;;;4896939;29;20112;-72
2023/08/27 07:04:41;;;;;;;8.35;4.78;;;15.60;99.90;;;;;;4874617;29;20076;-72
2023/08/27 07:07:08;;;;;;;8.27;4.75;;;15.60;99.90;;;;;;4896304;29;20138;-72
2023/08/27 07:09:34;;;;;;;7.47;4.50;;;15.60;99.90;;;;;;4896285;29;20100;-73
2023/08/27 07:12:00;;;;;;;8.57;4.40;;;15.60;99.90;;;;;;4885696;29;20381;-72
2023/08/27 07:14:26;;;;;;;6.35;4.00;;;15.60;99.90;;;;;;4875858;29;20157;-74
2023/08/27 07:16:52;;;;;;;7.05;4.20;;;15.60;99.90;;;;;;4866301;29;20492;-73
2023/08/27 07:19:17;;;;;;;8.48;4.68;;;15.60;99.90;;;;;;4899654;29;20096;-73
2023/08/27 07:21:43;;;;;;;8.18;4.60;;;15.60;99.90;;;;;;4882127;29;20160;-73
2023/08/27 07:24:09;;;;;;;9.05;4.32;;;15.60;99.90;;;;;;4900418;29;20083;-73
2023/08/27 07:26:35;;;;;;;6.20;3.88;;;15.50;99.90;;;;;;4900044;29;20084;-74
2023/08/27 07:29:01;;;;;;;6.28;3.67;;;15.50;99.90;;;;;;4870412;29;20120;-74
2023/08/27 07:31:26;;;;;;;5.85;3.38;;;15.50;99.90;;;;;;4900409;29;20049;-72
2023/08/27 07:33:52;;;;;;;5.07;3.30;;;15.60;99.90;;;;;;4895328;29;20048;-74
2023/08/27 07:36:18;;;;;;;6.65;3.20;;;15.60;99.90;;;;;;4901125;29;20040;-72
2023/08/27 07:38:44;;;;;;;4.68;2.75;;;15.60;99.90;;;;;;4888868;29;20052;-71
2023/08/27 07:41:10;;;;;;;4.25;3.03;;;15.70;99.90;;;;;;4886923;29;20406;-72
2023/08/27 07:43:37;;;;;;;4.75;2.95;;;15.60;99.90;;;;;;4884139;29;20049;-72
2023/08/27 07:46:03;;;;;;;5.93;2.63;;;15.70;99.90;;;;;;4886666;29;20068;-71
2023/08/27 07:48:30;;;;;;;4.80;2.75;;;15.70;99.90;;;;;;4876212;29;20085;-72
2023/08/27 07:50:57;;;;;;;5.38;2.83;;;15.70;99.90;;;;;;4865772;29;20053;-73
2023/08/27 07:53:23;;;;;;;4.13;2.58;;;15.70;99.90;;;;;;4881712;29;20059;-72
2023/08/27 07:55:50;;;;;;;3.78;2.80;;;15.70;99.90;;;;;;4872291;29;20057;-72
2023/08/27 07:58:16;;;;;;;5.55;2.80;;;15.70;99.90;;;;;;4881505;29;20055;-71
2023/08/27 08:00:41;;;;;;;5.25;2.90;;;15.70;99.90;;;;;;4849233;29;20128;-71
2023/08/27 08:03:07;;;;;;;5.50;2.60;;;15.80;99.90;;;;;;4864910;29;20061;-72
2023/08/27 08:05:33;;;;;;;4.60;2.55;;;15.90;99.90;;;;;;4888332;29;20451;-84
2023/08/27 08:07:58;;;;;;;5.13;3.22;;;15.90;99.90;;;;;;4887707;29;20053;-76
2023/08/27 08:10:24;;;;;;;4.43;2.70;;;16.10;99.90;;;;;;4881945;29;20088;-77
2023/08/27 08:12:51;;;;;;;5.30;2.63;;;16.30;99.90;;;;;;4881720;29;20076;-78
2023/08/27 08:15:17;;;;;;;5.70;2.75;;;16.50;99.90;;;;;;4881256;29;20041;-78
2023/08/27 08:17:43;;;;;;;4.50;2.50;;;17.70;99.90;;;;;;4864347;29;20117;-76
2023/08/27 08:20:10;;;;;;;6.43;2.80;;;18.90;99.90;;;;;;4881206;29;20041;-75
2023/08/27 08:22:36;;;;;;;6.55;2.80;;;20.00;99.90;;;;;;4880693;29;20049;-80
2023/08/27 08:25:02;;;;;;;4.35;2.45;;;21.00;99.90;;;;;;4880850;29;20056;-76
2023/08/27 08:27:27;;;;;;;4.55;2.40;;;21.60;99.90;;;;;;4864164;29;20052;-73
2023/08/27 08:29:54;;;;;;;4.50;2.38;;;22.20;99.90;;;;;;4864185;29;20060;-75
2023/08/27 08:32:20;;;;;;;3.83;2.17;;;22.70;99.90;;;;;;4880853;29;20056;-76
2023/08/27 08:34:46;;;;;;;3.90;2.40;;;23.10;99.90;;;;;;4880882;29;20048;-76
2023/08/27 08:37:12;;;;;;;3.80;2.28;;;22.40;99.90;;;;;;4864330;29;20052;-75
2023/08/27 08:39:37;;;;;;;4.20;2.35;;;22.00;99.90;;;;;;4884987;29;20048;-80
2023/08/27 08:42:06;;;;;;;5.40;2.42;;;22.20;99.90;;;;;;4875249;29;20058;-75
2023/08/27 08:44:54;;;;;;;4.65;2.22;;;22.30;99.90;;;;;;4882925;29;20552;-76
2023/08/27 08:47:22;;;;;;;3.95;2.45;;;22.30;99.90;;;;;;4898305;29;20077;-75
2023/08/27 08:49:54;;;;;;;4.15;2.20;;;22.60;99.90;;;;;;4897565;29;20067;-76
2023/08/27 08:52:25;;;;;;;4.25;2.10;;;22.70;99.90;;;;;;4885038;29;20049;-76
2023/08/27 08:54:54;;;;;;;3.70;1.90;;;23.00;99.90;;;;;;4880845;29;20113;-75
2023/08/27 08:57:23;;;;;;;5.35;2.45;;;23.50;99.90;;;;;;4897926;29;20180;-74
2023/08/27 08:59:49;;;;;;;2.88;1.70;;;23.90;99.90;;;;;;4897397;29;20060;-74
2023/08/27 09:02:16;;;;;;;4.18;2.00;;;24.20;99.90;;;;;;4893701;29;20044;-75
2023/08/27 09:04:42;;;;;;;3.10;1.77;;;24.20;99.90;;;;;;4864342;29;20482;-82
2023/08/27 09:07:08;;;;;;;3.38;1.80;;;24.30;99.90;;;;;;4871463;29;20054;-75
2023/08/27 09:09:34;;;;;;;3.42;1.80;;;24.60;99.90;;;;;;4863961;29;20152;-75
2023/08/27 09:12:01;;;;;;;3.75;1.70;;;24.90;99.90;;;;;;4879414;29;20049;-75
2023/08/27 09:14:29;;;;;;;3.03;1.60;;;24.70;99.90;;;;;;4847862;29;20535;-75
2023/08/27 09:16:55;;;;;;;2.72;1.80;;;24.70;99.90;;;;;;4877735;29;20045;-74
2023/08/27 09:19:21;;;;;;;5.10;2.13;;;24.30;99.90;;;;;;4879441;29;20124;-74
2023/08/27 09:21:47;;;;;;;4.18;2.00;;;24.10;99.90;;;;;;4878566;29;20105;-77
2023/08/27 09:24:13;;;;;;;3.50;1.80;;;24.40;99.90;;;;;;4877038;29;20080;-75
2023/08/27 09:26:39;;;;;;;2.83;1.73;;;24.30;99.90;;;;;;4867560;29;20049;-74
2023/08/27 09:29:08;;;;;;;3.03;1.70;;;24.30;99.90;;;;;;4875199;29;20107;-74
2023/08/27 09:31:36;;;;;;;3.53;1.52;;;24.10;99.70;;;;;;4862471;29;20388;-74
2023/08/27 09:34:02;;;;;;;3.22;1.85;;;24.10;99.90;;;;;;4863630;29;20063;-74
2023/08/27 09:36:27;;;;;;;2.63;1.70;;;24.20;99.90;;;;;;4881602;29;20041;-74
2023/08/27 09:38:53;;;;;;;2.92;2.00;;;24.10;99.90;;;;;;4878845;29;20076;-75
2023/08/27 09:41:20;;;;;;;3.17;1.70;;;23.90;99.90;;;;;;4882086;29;20483;-75
2023/08/27 09:43:53;;;;;;;3.05;1.70;;;23.50;99.90;;;;;;4866988;29;20060;-79
2023/08/27 09:46:19;;;;;;;3.47;1.50;;;23.30;99.90;;;;;;4886567;29;20124;-73
2023/08/27 09:49:07;;;;;;;3.90;1.77;;;23.10;99.90;;;;;;4879266;29;20128;-77
2023/08/27 09:51:38;;;;;;;3.08;1.80;;;23.00;99.90;;;;;;4880672;29;20056;-77
2023/08/27 09:54:19;;;;;;;2.30;1.55;;;22.80;99.90;;;;;;4866123;29;20049;-75
2023/08/27 09:56:46;;;;;;;3.55;1.95;;;22.60;99.90;;;;;;4877155;29;20048;-78
2023/08/27 09:59:16;;;;;;;4.53;1.60;;;22.50;99.90;;;;;;4862580;29;20366;-80
2023/08/27 10:01:48;;;;;;;3.53;2.00;;;22.40;99.90;;;;;;4879738;29;21339;-78
2023/08/27 10:04:17;;;;;;;3.38;1.80;;;22.20;99.90;;;;;;4876576;29;20131;-75
2023/08/27 10:06:43;;;;;;;4.68;1.90;;;22.20;99.90;;;;;;4874510;29;20108;-79
2023/08/27 10:09:09;;;;;;;3.72;2.00;;;22.30;99.90;;;;;;4860411;29;20116;-78
2023/08/27 10:11:36;;;;;;;3.30;1.73;;;22.30;99.90;;;;;;4880496;29;20052;-77
2023/08/27 10:14:04;;;;;;;3.80;2.08;;;22.20;99.90;;;;;;4866001;29;20127;-79
2023/08/27 10:16:34;;;;;;;3.25;1.88;;;22.20;99.90;;;;;;4876498;29;20041;-79
2023/08/27 10:19:03;;;;;;;4.43;1.85;;;22.20;99.90;;;;;;4897236;29;20093;-80
2023/08/27 10:21:30;;;;;;;3.08;1.90;;;22.20;99.90;;;;;;4883306;29;20051;-80
2023/08/27 10:23:57;;;;;;;5.18;1.70;;;22.30;99.90;;;;;;4879534;29;20498;-80
2023/08/27 10:26:23;;;;;;;3.45;1.80;;;22.20;99.90;;;;;;4892760;29;20479;-78
2023/08/27 10:28:53;;;;;;;2.70;1.50;;;22.20;99.90;;;;;;4883847;29;20081;-79
2023/08/27 10:31:19;;;;;;;2.92;1.48;;;22.30;99.90;;;;;;4861802;29;20045;-76
2023/08/27 10:33:44;;;;;;;2.47;1.50;;;22.30;99.90;;;;;;4877022;29;20105;-73
2023/08/27 10:36:17;;;;;;;3.95;1.80;;;22.30;99.90;;;;;;4882620;29;20091;-71
2023/08/27 10:38:46;;;;;;;2.97;1.67;;;22.20;99.90;;;;;;4877911;29;20092;-76
2023/08/27 10:41:16;;;;;;;2.47;1.42;;;22.20;99.90;;;;;;4865017;29;20298;-75
2023/08/27 10:43:42;;;;;;;2.75;1.50;;;22.30;99.90;;;;;;4878858;29;20106;-75
2023/08/27 10:46:18;;;;;;;1.90;1.30;;;22.30;99.90;;;;;;4865023;29;20087;-75
2023/08/27 10:48:52;;;;;;;4.53;1.60;;;22.30;99.90;;;;;;4891203;29;20048;-75
2023/08/27 10:51:21;;;;;;;2.28;1.50;;;22.40;99.90;;;;;;4881740;29;20416;-75
2023/08/27 10:53:49;;;;;;;3.58;1.40;;;22.50;99.90;;;;;;4878456;29;20117;-72
2023/08/27 10:56:36;;;;;;;2.63;1.70;;;22.40;99.90;;;;;;4881092;29;20084;-74
2023/08/27 10:59:04;;;;;;;3.58;1.50;;;22.40;99.90;;;;;;4873998;29;20080;-79
2023/08/27 11:01:36;;;;;;;3.83;1.60;;;22.40;99.90;;;;;;4865861;29;20048;-78
2023/08/27 11:04:10;;;;;;;4.15;1.48;;;22.20;99.90;;;;;;4865059;29;20128;-78
2023/08/27 11:06:46;;;;;;;5.13;1.90;;;22.10;99.90;;;;;;4882194;29;20092;-78
2023/08/27 11:09:16;;;;;;;3.00;1.60;;;21.90;99.90;;;;;;4882071;29;20048;-78
2023/08/27 11:11:49;;;;;;;3.40;1.85;;;21.80;99.90;;;;;;4881255;29;20053;-79
2023/08/27 11:14:16;;;;;;;4.53;1.60;;;21.70;99.90;;;;;;4880063;29;20044;-80
2023/08/27 11:16:58;;;;;;;2.63;1.48;;;21.70;99.90;;;;;;4881869;29;20053;-80
2023/08/27 11:19:32;;;;;;;3.78;2.15;;;21.60;99.90;;;;;;4862262;29;20057;-81
2023/08/27 11:22:14;;;;;;;5.25;2.63;;;21.60;99.90;;;;;;4879121;29;20084;-79
2023/08/27 11:24:50;;;;;;;4.95;2.10;;;21.50;99.90;;;;;;4866314;29;20060;-82
2023/08/27 11:27:18;;;;;;;3.42;2.03;;;21.30;99.90;;;;;;4877915;29;20131;-82
2023/08/27 11:29:46;;;;;;;3.35;2.10;;;21.20;99.90;;;;;;4865552;29;20124;-81
2023/08/27 11:32:12;;;;;;;4.38;2.20;;;21.00;99.90;;;;;;4880799;29;20209;-80
2023/08/27 11:34:40;;;;;;;5.38;2.30;;;20.70;99.90;;;;;;4882042;29;20567;-80
2023/08/27 11:37:06;;;;;;;4.20;2.10;;;20.70;99.90;;;;;;4880381;29;20068;-81
2023/08/27 11:39:36;;;;;;;4.30;2.00;;;20.70;99.90;;;;;;4867444;29;20053;-77
2023/08/27 11:42:08;;;;;;;3.15;2.10;;;20.70;99.90;;;;;;4884036;29;20064;-81
2023/08/27 11:44:33;;;;;;;5.00;1.83;;;20.80;99.90;;;;;;4865568;29;20389;-82
2023/08/27 11:47:05;;;;;;;3.58;1.70;;;21.00;99.90;;;;;;4881667;29;20052;-82
2023/08/27 11:49:32;;;;;;;3.83;1.75;;;21.10;99.90;;;;;;4881303;29;20068;-81
2023/08/27 11:51:59;;;;;;;4.82;2.25;;;21.20;99.90;;;;;;4880700;29;20468;-82
2023/08/27 11:54:33;;;;;;;3.88;2.03;;;21.20;99.90;;;;;;4880300;29;20056;-81
2023/08/27 11:57:02;;;;;;;6.05;1.85;;;21.10;99.90;;;;;;4865050;29;20180;-81
2023/08/27 11:59:28;;;;;;;2.67;1.80;;;20.90;99.90;;;;;;4866291;29;20076;-81
2023/08/27 12:01:58;;;;;;;3.53;1.77;;;20.60;99.90;;;;;;4878014;29;20048;-80
2023/08/27 12:04:28;;;;;;;3.35;1.30;;;20.40;99.90;;;;;;4879248;29;20053;-79
2023/08/27 12:06:58;;;;;;;3.10;1.60;;;20.10;99.90;;;;;;4874795;29;20041;-80
2023/08/27 12:09:27;;;;;;;2.85;1.33;;;19.90;99.90;;;;;;4875676;29;20120;-80
2023/08/27 12:11:53;;;;;;;2.30;1.30;;;19.80;99.90;;;;;;4865608;29;20385;-79
2023/08/27 12:14:25;;;;;;;1.42;1.10;;;19.70;99.90;;;;;;4879667;29;20076;-80
2023/08/27 12:16:51;;;;;;;3.60;1.20;;;19.60;99.90;;;;;;4880732;29;20069;-80
2023/08/27 12:19:22;;;;;;;2.47;1.10;;;19.60;99.90;;;;;;4864680;29;20073;-79
2023/08/27 12:21:56;;;;;;;1.63;1.20;;;19.50;99.90;;;;;;4866569;29;20116;-80
2023/08/27 12:24:42;;;;;;;1.77;1.05;;;19.40;99.90;;;;;;4865527;29;20049;-80
2023/08/27 12:27:10;;;;;;;5.38;1.70;;;19.30;99.90;;;;;;4879011;29;20067;-80
2023/08/27 12:29:41;;;;;;;3.40;1.33;;;19.20;99.90;;;;;;4856366;29;20072;-82
2023/08/27 12:32:14;;;;;;;2.55;1.17;;;18.90;99.90;;;;;;4878101;29;20045;-82
2023/08/27 12:34:49;;;;;;;1.02;0.82;;;18.70;99.90;;;;;;4864667;29;20053;-82
2023/08/27 12:37:19;;;;;;;1.30;0.95;;;18.60;99.90;;;;;;4863613;29;20407;-84
2023/08/27 12:39:46;;;;;;;1.30;0.93;;;18.50;99.90;;;;;;4884229;29;20044;-84
2023/08/27 12:42:14;;;;;;;2.22;1.23;;;18.50;99.90;;;;;;4875239;29;20043;-81
2023/08/27 12:44:40;;;;;;;4.35;1.38;;;18.40;99.90;;;;;;4862785;29;20049;-80
2023/08/27 12:47:07;;;;;;;5.22;1.20;;;18.50;99.90;;;;;;4864061;29;20047;-81